sensor_id;sensor_type;location;lat;lon;timestamp;P1;durP1;ratioP1;P2;durP2;ratioP2
7903;SDS011;3997;48.416;8.512;2022-09-12T00:01:43;7.95;;;7.25;;
7903;SDS011;3997;48.416;8.512;2022-09-12T00:04:09;8.60;;;7.68;;
7903;SDS011;3997;48.416;8.512;2022-09-12T00:06:36;8.63;;;6.72;;
7903;SDS011;3997;48.416;8.512;2022-09-12T00:09:04;8.75;;;7.60;;
7903;SDS011;3997;48.416;8.512;2022-09-12T00:11:31;7.85;;;6.95;;
7903;SDS011;3997;48.416;8.512;2022-09-12T00:13:59;7.65;;;6.80;;
7903;SDS011;3997;48.416;8.512;2022-09-12T00:16:27;9.02;;;7.30;;
7903;SDS011;3997;48.416;8.512;2022-09-12T00:18:55;8.32;;;7.50;;
7903;SDS011;3997;48.416;8.512;2022-09-12T00:21:22;8.43;;;7.72;;
7903;SDS011;3997;48.416;8.512;2022-09-12T00:23:48;8.15;;;7.43;;
7903;SDS011;3997;48.416;8.512;2022-09-12T00:26:16;7.95;;;7.25;;
7903;SDS011;3997;48.416;8.512;2022-09-12T00:28:42;9.27;;;7.60;;
7903;SDS011;3997;48.416;8.512;2022-09-12T00:31:10;8.68;;;7.88;;
7903;SDS011;3997;48.416;8.512;2022-09-12T00:33:38;8.48;;;7.78;;
7903;SDS011;3997;48.416;8.512;2022-09-12T00:36:06;8.48;;;7.07;;
7903;SDS011;3997;48.416;8.512;2022-09-12T00:38:33;7.75;;;6.95;;
7903;SDS011;3997;48.416;8.512;2022-09-12T00:41:02;9.30;;;6.80;;
7903;SDS011;3997;48.416;8.512;2022-09-12T00:43:33;8.05;;;7.10;;
7903;SDS011;3997;48.416;8.512;2022-09-12T00:46:01;11.00;;;7.97;;
7903;SDS011;3997;48.416;8.512;2022-09-12T00:48:29;7.63;;;6.93;;
7903;SDS011;3997;48.416;8.512;2022-09-12T00:50:58;8.63;;;7.85;;
7903;SDS011;3997;48.416;8.512;2022-09-12T00:53:24;8.60;;;7.90;;
7903;SDS011;3997;48.416;8.512;2022-09-12T00:55:51;8.60;;;7.93;;
7903;SDS011;3997;48.416;8.512;2022-09-12T00:58:19;8.80;;;8.10;;
7903;SDS011;3997;48.416;8.512;2022-09-12T01:00:47;9.00;;;8.10;;
7903;SDS011;3997;48.416;8.512;2022-09-12T01:03:15;7.65;;;6.95;;
7903;SDS011;3997;48.416;8.512;2022-09-12T01:05:43;8.52;;;7.82;;
7903;SDS011;3997;48.416;8.512;2022-09-12T01:08:14;8.80;;;8.00;;
7903;SDS011;3997;48.416;8.512;2022-09-12T01:10:42;9.48;;;8.68;;
7903;SDS011;3997;48.416;8.512;2022-09-12T01:13:08;9.18;;;8.35;;
7903;SDS011;3997;48.416;8.512;2022-09-12T01:15:36;8.77;;;8.07;;
7903;SDS011;3997;48.416;8.512;2022-09-12T01:18:06;8.10;;;7.40;;
7903;SDS011;3997;48.416;8.512;2022-09-12T01:20:44;8.63;;;7.82;;
7903;SDS011;3997;48.416;8.512;2022-09-12T01:23:21;8.48;;;7.68;;
7903;SDS011;3997;48.416;8.512;2022-09-12T01:25:55;7.57;;;6.97;;
7903;SDS011;3997;48.416;8.512;2022-09-12T01:28:33;8.35;;;7.65;;
7903;SDS011;3997;48.416;8.512;2022-09-12T01:31:06;8.02;;;7.32;;
7903;SDS011;3997;48.416;8.512;2022-09-12T01:33:35;8.70;;;7.72;;
7903;SDS011;3997;48.416;8.512;2022-09-12T01:36:10;7.82;;;6.97;;
7903;SDS011;3997;48.416;8.512;2022-09-12T01:38:41;7.60;;;7.00;;
7903;SDS011;3997;48.416;8.512;2022-09-12T01:41:10;9.18;;;7.43;;
7903;SDS011;3997;48.416;8.512;2022-09-12T01:43:40;6.88;;;6.28;;
7903;SDS011;3997;48.416;8.512;2022-09-12T01:46:11;7.13;;;6.43;;
7903;SDS011;3997;48.416;8.512;2022-09-12T01:48:43;6.75;;;6.15;;
7903;SDS011;3997;48.416;8.512;2022-09-12T01:51:12;7.70;;;6.90;;
7903;SDS011;3997;48.416;8.512;2022-09-12T01:53:43;8.02;;;7.22;;
7903;SDS011;3997;48.416;8.512;2022-09-12T01:56:12;8.77;;;7.97;;
7903;SDS011;3997;48.416;8.512;2022-09-12T01:58:41;8.48;;;7.68;;
7903;SDS011;3997;48.416;8.512;2022-09-12T02:01:11;8.43;;;7.70;;
7903;SDS011;3997;48.416;8.512;2022-09-12T02:03:41;9.43;;;8.52;;
7903;SDS011;3997;48.416;8.512;2022-09-12T02:06:11;10.32;;;8.75;;
7903;SDS011;3997;48.416;8.512;2022-09-12T02:08:41;8.82;;;7.82;;
7903;SDS011;3997;48.416;8.512;2022-09-12T02:11:10;8.88;;;8.10;;
7903;SDS011;3997;48.416;8.512;2022-09-12T02:13:38;8.75;;;7.95;;
7903;SDS011;3997;48.416;8.512;2022-09-12T02:16:07;10.00;;;9.00;;
7903;SDS011;3997;48.416;8.512;2022-09-12T02:18:37;9.27;;;7.90;;
7903;SDS011;3997;48.416;8.512;2022-09-12T02:21:04;9.25;;;8.10;;
7903;SDS011;3997;48.416;8.512;2022-09-12T02:23:31;8.18;;;7.47;;
7903;SDS011;3997;48.416;8.512;2022-09-12T02:26:00;7.75;;;7.05;;
7903;SDS011;3997;48.416;8.512;2022-09-12T02:28:29;7.55;;;6.85;;
7903;SDS011;3997;48.416;8.512;2022-09-12T02:30:58;7.47;;;6.88;;
7903;SDS011;3997;48.416;8.512;2022-09-12T02:33:26;7.38;;;6.78;;
7903;SDS011;3997;48.416;8.512;2022-09-12T02:35:58;7.32;;;6.63;;
7903;SDS011;3997;48.416;8.512;2022-09-12T02:38:27;7.82;;;6.60;;
7903;SDS011;3997;48.416;8.512;2022-09-12T02:40:56;7.90;;;7.20;;
7903;SDS011;3997;48.416;8.512;2022-09-12T02:43:22;8.68;;;7.88;;
7903;SDS011;3997;48.416;8.512;2022-09-12T02:45:49;7.80;;;7.20;;
7903;SDS011;3997;48.416;8.512;2022-09-12T02:48:17;7.63;;;6.93;;
7903;SDS011;3997;48.416;8.512;2022-09-12T02:50:44;9.38;;;7.78;;
7903;SDS011;3997;48.416;8.512;2022-09-12T02:53:12;8.55;;;7.82;;
7903;SDS011;3997;48.416;8.512;2022-09-12T02:55:39;7.60;;;6.93;;
7903;SDS011;3997;48.416;8.512;2022-09-12T02:58:07;8.25;;;7.45;;
7903;SDS011;3997;48.416;8.512;2022-09-12T03:00:35;9.48;;;8.57;;
7903;SDS011;3997;48.416;8.512;2022-09-12T03:03:14;8.45;;;7.53;;
7903;SDS011;3997;48.416;8.512;2022-09-12T03:05:46;10.32;;;8.13;;
7903;SDS011;3997;48.416;8.512;2022-09-12T03:13:47;7.50;;;6.90;;
7903;SDS011;3997;48.416;8.512;2022-09-12T03:16:20;7.45;;;6.75;;
7903;SDS011;3997;48.416;8.512;2022-09-12T03:18:51;7.28;;;6.18;;
7903;SDS011;3997;48.416;8.512;2022-09-12T03:21:20;7.30;;;6.60;;
7903;SDS011;3997;48.416;8.512;2022-09-12T03:23:50;6.95;;;6.30;;
7903;SDS011;3997;48.416;8.512;2022-09-12T03:26:22;7.22;;;5.97;;
7903;SDS011;3997;48.416;8.512;2022-09-12T03:28:53;7.70;;;6.90;;
7903;SDS011;3997;48.416;8.512;2022-09-12T03:31:19;6.93;;;6.32;;
7903;SDS011;3997;48.416;8.512;2022-09-12T03:33:46;6.88;;;6.30;;
7903;SDS011;3997;48.416;8.512;2022-09-12T03:36:14;6.45;;;5.95;;
7903;SDS011;3997;48.416;8.512;2022-09-12T03:38:40;8.23;;;6.32;;
7903;SDS011;3997;48.416;8.512;2022-09-12T03:41:07;7.10;;;6.40;;
7903;SDS011;3997;48.416;8.512;2022-09-12T03:43:33;7.50;;;6.05;;
7903;SDS011;3997;48.416;8.512;2022-09-12T03:46:01;7.63;;;6.07;;
7903;SDS011;3997;48.416;8.512;2022-09-12T03:48:28;6.65;;;6.05;;
7903;SDS011;3997;48.416;8.512;2022-09-12T03:50:58;7.38;;;6.35;;
7903;SDS011;3997;48.416;8.512;2022-09-12T03:53:24;6.80;;;6.20;;
7903;SDS011;3997;48.416;8.512;2022-09-12T03:55:51;6.80;;;6.05;;
7903;SDS011;3997;48.416;8.512;2022-09-12T03:58:17;7.13;;;6.43;;
7903;SDS011;3997;48.416;8.512;2022-09-12T04:00:44;6.80;;;6.18;;
7903;SDS011;3997;48.416;8.512;2022-09-12T04:03:12;6.05;;;5.53;;
7903;SDS011;3997;48.416;8.512;2022-09-12T04:05:38;6.47;;;5.75;;
7903;SDS011;3997;48.416;8.512;2022-09-12T04:08:05;12.43;;;5.78;;
7903;SDS011;3997;48.416;8.512;2022-09-12T04:10:31;6.63;;;6.03;;
7903;SDS011;3997;48.416;8.512;2022-09-12T04:12:57;6.13;;;5.57;;
7903;SDS011;3997;48.416;8.512;2022-09-12T04:15:24;6.20;;;5.70;;
7903;SDS011;3997;48.416;8.512;2022-09-12T04:17:50;6.18;;;5.60;;
7903;SDS011;3997;48.416;8.512;2022-09-12T04:20:18;5.32;;;4.88;;
7903;SDS011;3997;48.416;8.512;2022-09-12T04:22:44;6.35;;;5.85;;
7903;SDS011;3997;48.416;8.512;2022-09-12T04:25:11;7.15;;;5.20;;
7903;SDS011;3997;48.416;8.512;2022-09-12T04:27:38;5.82;;;5.22;;
7903;SDS011;3997;48.416;8.512;2022-09-12T04:30:05;7.28;;;5.38;;
7903;SDS011;3997;48.416;8.512;2022-09-12T04:32:31;6.32;;;5.78;;
7903;SDS011;3997;48.416;8.512;2022-09-12T04:34:58;5.85;;;5.30;;
7903;SDS011;3997;48.416;8.512;2022-09-12T04:37:25;6.65;;;5.97;;
7903;SDS011;3997;48.416;8.512;2022-09-12T04:39:52;7.28;;;6.25;;
7903;SDS011;3997;48.416;8.512;2022-09-12T04:42:21;6.65;;;6.05;;
7903;SDS011;3997;48.416;8.512;2022-09-12T04:44:48;6.75;;;6.05;;
7903;SDS011;3997;48.416;8.512;2022-09-12T04:47:14;7.47;;;6.85;;
7903;SDS011;3997;48.416;8.512;2022-09-12T04:49:41;6.80;;;6.10;;
7903;SDS011;3997;48.416;8.512;2022-09-12T04:52:07;8.00;;;6.95;;
7903;SDS011;3997;48.416;8.512;2022-09-12T04:54:35;6.22;;;5.70;;
7903;SDS011;3997;48.416;8.512;2022-09-12T04:57:02;6.10;;;5.50;;
7903;SDS011;3997;48.416;8.512;2022-09-12T04:59:28;7.22;;;6.38;;
7903;SDS011;3997;48.416;8.512;2022-09-12T05:01:55;6.65;;;5.82;;
7903;SDS011;3997;48.416;8.512;2022-09-12T05:04:21;7.00;;;6.40;;
7903;SDS011;3997;48.416;8.512;2022-09-12T05:06:48;7.10;;;6.50;;
7903;SDS011;3997;48.416;8.512;2022-09-12T05:09:14;6.80;;;6.20;;
7903;SDS011;3997;48.416;8.512;2022-09-12T05:11:42;7.22;;;6.03;;
7903;SDS011;3997;48.416;8.512;2022-09-12T05:14:09;5.93;;;5.53;;
7903;SDS011;3997;48.416;8.512;2022-09-12T05:16:35;6.65;;;6.05;;
7903;SDS011;3997;48.416;8.512;2022-09-12T05:19:02;6.43;;;5.85;;
7903;SDS011;3997;48.416;8.512;2022-09-12T05:21:29;7.32;;;6.72;;
7903;SDS011;3997;48.416;8.512;2022-09-12T05:23:56;8.13;;;7.32;;
7903;SDS011;3997;48.416;8.512;2022-09-12T05:26:23;8.60;;;7.55;;
7903;SDS011;3997;48.416;8.512;2022-09-12T05:28:52;7.68;;;6.95;;
7903;SDS011;3997;48.416;8.512;2022-09-12T05:31:19;6.97;;;6.28;;
7903;SDS011;3997;48.416;8.512;2022-09-12T05:33:46;7.05;;;6.43;;
7903;SDS011;3997;48.416;8.512;2022-09-12T05:36:13;8.70;;;7.07;;
7903;SDS011;3997;48.416;8.512;2022-09-12T05:38:40;7.15;;;5.88;;
7903;SDS011;3997;48.416;8.512;2022-09-12T05:41:07;9.20;;;6.53;;
7903;SDS011;3997;48.416;8.512;2022-09-12T05:43:36;8.98;;;8.07;;
7903;SDS011;3997;48.416;8.512;2022-09-12T05:46:04;8.10;;;7.40;;
7903;SDS011;3997;48.416;8.512;2022-09-12T05:48:32;6.63;;;6.03;;
7903;SDS011;3997;48.416;8.512;2022-09-12T05:50:59;7.55;;;6.82;;
7903;SDS011;3997;48.416;8.512;2022-09-12T05:53:26;8.25;;;6.20;;
7903;SDS011;3997;48.416;8.512;2022-09-12T05:56:00;8.02;;;5.63;;
7903;SDS011;3997;48.416;8.512;2022-09-12T05:58:26;6.40;;;5.90;;
7903;SDS011;3997;48.416;8.512;2022-09-12T06:00:53;6.15;;;5.55;;
7903;SDS011;3997;48.416;8.512;2022-09-12T06:03:21;6.10;;;5.50;;
7903;SDS011;3997;48.416;8.512;2022-09-12T06:05:48;6.78;;;5.90;;
7903;SDS011;3997;48.416;8.512;2022-09-12T06:08:14;5.68;;;5.28;;
7903;SDS011;3997;48.416;8.512;2022-09-12T06:10:40;6.35;;;5.75;;
7903;SDS011;3997;48.416;8.512;2022-09-12T06:13:07;6.30;;;5.80;;
7903;SDS011;3997;48.416;8.512;2022-09-12T06:15:34;6.50;;;6.00;;
7903;SDS011;3997;48.416;8.512;2022-09-12T06:18:01;7.40;;;6.80;;
7903;SDS011;3997;48.416;8.512;2022-09-12T06:20:29;8.30;;;7.47;;
7903;SDS011;3997;48.416;8.512;2022-09-12T06:22:55;7.97;;;7.18;;
7903;SDS011;3997;48.416;8.512;2022-09-12T06:25:22;8.65;;;7.85;;
7903;SDS011;3997;48.416;8.512;2022-09-12T06:27:48;7.28;;;6.60;;
7903;SDS011;3997;48.416;8.512;2022-09-12T06:30:15;7.20;;;6.60;;
7903;SDS011;3997;48.416;8.512;2022-09-12T06:32:41;8.05;;;7.35;;
7903;SDS011;3997;48.416;8.512;2022-09-12T06:35:08;6.47;;;5.97;;
7903;SDS011;3997;48.416;8.512;2022-09-12T06:37:36;7.07;;;6.38;;
7903;SDS011;3997;48.416;8.512;2022-09-12T06:40:02;6.90;;;6.30;;
7903;SDS011;3997;48.416;8.512;2022-09-12T06:42:29;6.07;;;5.55;;
7903;SDS011;3997;48.416;8.512;2022-09-12T06:44:56;5.72;;;5.32;;
7903;SDS011;3997;48.416;8.512;2022-09-12T06:47:23;5.97;;;5.25;;
7903;SDS011;3997;48.416;8.512;2022-09-12T06:49:49;5.60;;;5.13;;
7903;SDS011;3997;48.416;8.512;2022-09-12T06:52:16;6.28;;;5.78;;
7903;SDS011;3997;48.416;8.512;2022-09-12T06:54:43;5.55;;;5.05;;
7903;SDS011;3997;48.416;8.512;2022-09-12T06:57:10;5.35;;;4.95;;
7903;SDS011;3997;48.416;8.512;2022-09-12T06:59:37;6.20;;;5.03;;
7903;SDS011;3997;48.416;8.512;2022-09-12T07:02:03;4.95;;;4.55;;
7903;SDS011;3997;48.416;8.512;2022-09-12T07:04:30;5.20;;;4.70;;
7903;SDS011;3997;48.416;8.512;2022-09-12T07:06:57;4.57;;;4.18;;
7903;SDS011;3997;48.416;8.512;2022-09-12T07:09:25;3.85;;;3.58;;
7903;SDS011;3997;48.416;8.512;2022-09-12T07:11:53;4.22;;;3.92;;
7903;SDS011;3997;48.416;8.512;2022-09-12T07:14:19;3.70;;;3.40;;
7903;SDS011;3997;48.416;8.512;2022-09-12T07:16:46;6.55;;;3.63;;
7903;SDS011;3997;48.416;8.512;2022-09-12T07:19:12;3.90;;;3.60;;
7903;SDS011;3997;48.416;8.512;2022-09-12T07:21:39;3.80;;;3.60;;
7903;SDS011;3997;48.416;8.512;2022-09-12T07:24:06;4.03;;;3.72;;
7903;SDS011;3997;48.416;8.512;2022-09-12T07:26:33;4.28;;;3.88;;
7903;SDS011;3997;48.416;8.512;2022-09-12T07:29:01;4.40;;;3.95;;
7903;SDS011;3997;48.416;8.512;2022-09-12T07:31:29;3.90;;;3.45;;
7903;SDS011;3997;48.416;8.512;2022-09-12T07:33:55;3.95;;;3.65;;
7903;SDS011;3997;48.416;8.512;2022-09-12T07:36:22;4.40;;;4.03;;
7903;SDS011;3997;48.416;8.512;2022-09-12T07:38:52;4.20;;;3.90;;
7903;SDS011;3997;48.416;8.512;2022-09-12T07:41:19;4.53;;;4.10;;
7903;SDS011;3997;48.416;8.512;2022-09-12T07:43:46;5.78;;;4.05;;
7903;SDS011;3997;48.416;8.512;2022-09-12T07:46:13;5.40;;;3.67;;
7903;SDS011;3997;48.416;8.512;2022-09-12T07:48:40;3.85;;;3.45;;
7903;SDS011;3997;48.416;8.512;2022-09-12T07:51:07;5.80;;;4.10;;
7903;SDS011;3997;48.416;8.512;2022-09-12T07:53:34;4.55;;;3.83;;
7903;SDS011;3997;48.416;8.512;2022-09-12T07:56:01;3.97;;;3.67;;
7903;SDS011;3997;48.416;8.512;2022-09-12T07:58:28;3.47;;;3.17;;
7903;SDS011;3997;48.416;8.512;2022-09-12T08:01:00;3.33;;;3.13;;
7903;SDS011;3997;48.416;8.512;2022-09-12T08:03:28;3.35;;;3.15;;
7903;SDS011;3997;48.416;8.512;2022-09-12T08:05:54;3.58;;;3.28;;
7903;SDS011;3997;48.416;8.512;2022-09-12T08:08:21;3.90;;;3.30;;
7903;SDS011;3997;48.416;8.512;2022-09-12T08:10:47;3.17;;;2.88;;
7903;SDS011;3997;48.416;8.512;2022-09-12T08:13:13;3.50;;;3.20;;
7903;SDS011;3997;48.416;8.512;2022-09-12T08:15:40;3.20;;;3.00;;
7903;SDS011;3997;48.416;8.512;2022-09-12T08:18:06;2.72;;;2.53;;
7903;SDS011;3997;48.416;8.512;2022-09-12T08:20:34;3.30;;;3.10;;
7903;SDS011;3997;48.416;8.512;2022-09-12T08:23:01;2.90;;;2.70;;
7903;SDS011;3997;48.416;8.512;2022-09-12T08:25:27;3.80;;;3.50;;
7903;SDS011;3997;48.416;8.512;2022-09-12T08:27:54;4.15;;;3.85;;
7903;SDS011;3997;48.416;8.512;2022-09-12T08:30:20;2.90;;;2.45;;
7903;SDS011;3997;48.416;8.512;2022-09-12T08:32:47;2.90;;;2.70;;
7903;SDS011;3997;48.416;8.512;2022-09-12T08:35:13;2.95;;;2.72;;
7903;SDS011;3997;48.416;8.512;2022-09-12T08:37:41;2.60;;;2.45;;
7903;SDS011;3997;48.416;8.512;2022-09-12T08:40:08;2.88;;;2.67;;
7903;SDS011;3997;48.416;8.512;2022-09-12T08:42:39;2.53;;;2.38;;
7903;SDS011;3997;48.416;8.512;2022-09-12T08:45:10;2.65;;;2.45;;
7903;SDS011;3997;48.416;8.512;2022-09-12T08:47:41;2.30;;;2.20;;
7903;SDS011;3997;48.416;8.512;2022-09-12T08:50:11;3.45;;;2.10;;
7903;SDS011;3997;48.416;8.512;2022-09-12T08:52:42;2.13;;;2.03;;
7903;SDS011;3997;48.416;8.512;2022-09-12T08:55:12;3.13;;;2.67;;
7903;SDS011;3997;48.416;8.512;2022-09-12T08:57:46;2.22;;;2.13;;
7903;SDS011;3997;48.416;8.512;2022-09-12T09:00:12;2.08;;;1.88;;
7903;SDS011;3997;48.416;8.512;2022-09-12T09:02:53;2.20;;;2.10;;
7903;SDS011;3997;48.416;8.512;2022-09-12T09:05:28;2.58;;;1.85;;
7903;SDS011;3997;48.416;8.512;2022-09-12T09:08:01;2.17;;;2.08;;
7903;SDS011;3997;48.416;8.512;2022-09-12T09:10:35;1.95;;;1.85;;
7903;SDS011;3997;48.416;8.512;2022-09-12T09:13:07;3.47;;;2.05;;
7903;SDS011;3997;48.416;8.512;2022-09-12T09:15:41;2.10;;;1.90;;
7903;SDS011;3997;48.416;8.512;2022-09-12T09:18:12;2.15;;;2.00;;
7903;SDS011;3997;48.416;8.512;2022-09-12T09:20:42;2.17;;;1.98;;
7903;SDS011;3997;48.416;8.512;2022-09-12T09:23:13;1.85;;;1.75;;
7903;SDS011;3997;48.416;8.512;2022-09-12T09:25:43;1.85;;;1.77;;
7903;SDS011;3997;48.416;8.512;2022-09-12T09:28:15;2.38;;;2.17;;
7903;SDS011;3997;48.416;8.512;2022-09-12T09:30:42;2.17;;;1.98;;
7903;SDS011;3997;48.416;8.512;2022-09-12T09:33:11;1.80;;;1.70;;
7903;SDS011;3997;48.416;8.512;2022-09-12T09:35:42;1.75;;;1.65;;
7903;SDS011;3997;48.416;8.512;2022-09-12T09:38:13;1.95;;;1.83;;
7903;SDS011;3997;48.416;8.512;2022-09-12T09:40:44;2.45;;;2.35;;
7903;SDS011;3997;48.416;8.512;2022-09-12T09:43:15;2.10;;;1.90;;
7903;SDS011;3997;48.416;8.512;2022-09-12T09:45:43;1.77;;;1.67;;
7903;SDS011;3997;48.416;8.512;2022-09-12T09:48:13;1.40;;;1.40;;
7903;SDS011;3997;48.416;8.512;2022-09-12T09:50:41;2.17;;;1.70;;
7903;SDS011;3997;48.416;8.512;2022-09-12T09:53:08;1.55;;;1.45;;
7903;SDS011;3997;48.416;8.512;2022-09-12T09:55:39;1.70;;;1.60;;
7903;SDS011;3997;48.416;8.512;2022-09-12T09:58:07;1.73;;;1.63;;
7903;SDS011;3997;48.416;8.512;2022-09-12T10:00:34;1.60;;;1.50;;
7903;SDS011;3997;48.416;8.512;2022-09-12T10:03:02;1.45;;;1.40;;
7903;SDS011;3997;48.416;8.512;2022-09-12T10:05:29;1.80;;;1.70;;
7903;SDS011;3997;48.416;8.512;2022-09-12T10:07:57;1.65;;;1.55;;
7903;SDS011;3997;48.416;8.512;2022-09-12T10:10:24;2.15;;;1.73;;
7903;SDS011;3997;48.416;8.512;2022-09-12T10:12:52;2.13;;;2.03;;
7903;SDS011;3997;48.416;8.512;2022-09-12T10:15:31;2.60;;;1.40;;
7903;SDS011;3997;48.416;8.512;2022-09-12T10:17:58;1.45;;;1.38;;
7903;SDS011;3997;48.416;8.512;2022-09-12T10:20:31;1.50;;;1.45;;
7903;SDS011;3997;48.416;8.512;2022-09-12T10:22:58;1.33;;;1.23;;
7903;SDS011;3997;48.416;8.512;2022-09-12T10:25:25;1.80;;;1.70;;
7903;SDS011;3997;48.416;8.512;2022-09-12T10:27:55;1.30;;;1.30;;
7903;SDS011;3997;48.416;8.512;2022-09-12T10:30:22;1.20;;;1.20;;
7903;SDS011;3997;48.416;8.512;2022-09-12T10:32:52;1.40;;;1.30;;
7903;SDS011;3997;48.416;8.512;2022-09-12T10:35:19;1.17;;;1.10;;
7903;SDS011;3997;48.416;8.512;2022-09-12T10:37:51;1.30;;;1.20;;
7903;SDS011;3997;48.416;8.512;2022-09-12T10:40:20;1.42;;;1.33;;
7903;SDS011;3997;48.416;8.512;2022-09-12T10:42:48;1.42;;;1.42;;
7903;SDS011;3997;48.416;8.512;2022-09-12T10:45:24;1.55;;;1.20;;
7903;SDS011;3997;48.416;8.512;2022-09-12T10:47:51;1.75;;;1.33;;
7903;SDS011;3997;48.416;8.512;2022-09-12T10:50:18;1.45;;;1.27;;
7903;SDS011;3997;48.416;8.512;2022-09-12T10:52:45;1.00;;;1.00;;
7903;SDS011;3997;48.416;8.512;2022-09-12T10:55:12;1.30;;;1.20;;
7903;SDS011;3997;48.416;8.512;2022-09-12T11:00:28;1.23;;;1.00;;
7903;SDS011;3997;48.416;8.512;2022-09-12T11:03:02;0.98;;;0.98;;
7903;SDS011;3997;48.416;8.512;2022-09-12T11:05:38;1.58;;;1.13;;
7903;SDS011;3997;48.416;8.512;2022-09-12T11:08:10;1.10;;;1.10;;
7903;SDS011;3997;48.416;8.512;2022-09-12T11:10:41;1.20;;;1.10;;
7903;SDS011;3997;48.416;8.512;2022-09-12T11:13:13;1.33;;;1.23;;
7903;SDS011;3997;48.416;8.512;2022-09-12T11:15:54;1.30;;;1.20;;
7903;SDS011;3997;48.416;8.512;2022-09-12T11:18:35;1.30;;;1.30;;
7903;SDS011;3997;48.416;8.512;2022-09-12T11:21:17;1.30;;;1.20;;
7903;SDS011;3997;48.416;8.512;2022-09-12T11:23:54;1.20;;;1.20;;
7903;SDS011;3997;48.416;8.512;2022-09-12T11:26:25;1.10;;;1.10;;
7903;SDS011;3997;48.416;8.512;2022-09-12T11:28:56;1.10;;;1.10;;
7903;SDS011;3997;48.416;8.512;2022-09-12T11:31:43;1.23;;;1.23;;
7903;SDS011;3997;48.416;8.512;2022-09-12T11:34:13;5.10;;;1.38;;
7903;SDS011;3997;48.416;8.512;2022-09-12T11:36:43;1.30;;;1.20;;
7903;SDS011;3997;48.416;8.512;2022-09-12T11:39:12;1.20;;;1.20;;
7903;SDS011;3997;48.416;8.512;2022-09-12T11:41:40;1.30;;;1.30;;
7903;SDS011;3997;48.416;8.512;2022-09-12T11:44:09;1.10;;;1.10;;
7903;SDS011;3997;48.416;8.512;2022-09-12T11:46:39;1.30;;;1.30;;
7903;SDS011;3997;48.416;8.512;2022-09-12T11:49:12;1.25;;;1.15;;
7903;SDS011;3997;48.416;8.512;2022-09-12T11:51:42;1.38;;;1.27;;
7903;SDS011;3997;48.416;8.512;2022-09-12T11:54:12;1.10;;;1.10;;
7903;SDS011;3997;48.416;8.512;2022-09-12T11:56:41;1.52;;;1.10;;
7903;SDS011;3997;48.416;8.512;2022-09-12T11:59:09;1.38;;;1.27;;
7903;SDS011;3997;48.416;8.512;2022-09-12T12:01:37;1.00;;;1.00;;
7903;SDS011;3997;48.416;8.512;2022-09-12T12:04:07;1.20;;;1.20;;
7903;SDS011;3997;48.416;8.512;2022-09-12T12:06:39;1.13;;;1.13;;
7903;SDS011;3997;48.416;8.512;2022-09-12T12:09:08;1.00;;;1.00;;
7903;SDS011;3997;48.416;8.512;2022-09-12T12:11:36;2.63;;;1.20;;
7903;SDS011;3997;48.416;8.512;2022-09-12T12:14:04;1.20;;;1.10;;
7903;SDS011;3997;48.416;8.512;2022-09-12T12:16:32;1.52;;;1.08;;
7903;SDS011;3997;48.416;8.512;2022-09-12T12:18:59;1.00;;;1.00;;
7903;SDS011;3997;48.416;8.512;2022-09-12T12:21:30;0.98;;;0.98;;
7903;SDS011;3997;48.416;8.512;2022-09-12T12:24:02;0.90;;;0.90;;
7903;SDS011;3997;48.416;8.512;2022-09-12T12:26:40;1.10;;;1.10;;
7903;SDS011;3997;48.416;8.512;2022-09-12T12:29:07;0.90;;;0.90;;
7903;SDS011;3997;48.416;8.512;2022-09-12T12:31:40;1.00;;;1.00;;
7903;SDS011;3997;48.416;8.512;2022-09-12T12:34:29;1.00;;;1.00;;
7903;SDS011;3997;48.416;8.512;2022-09-12T12:36:56;1.00;;;1.00;;
7903;SDS011;3997;48.416;8.512;2022-09-12T12:44:58;1.10;;;1.10;;
7903;SDS011;3997;48.416;8.512;2022-09-12T12:47:25;1.00;;;1.00;;
7903;SDS011;3997;48.416;8.512;2022-09-12T12:49:55;0.95;;;0.95;;
7903;SDS011;3997;48.416;8.512;2022-09-12T12:52:22;1.10;;;1.00;;
7903;SDS011;3997;48.416;8.512;2022-09-12T12:54:53;1.00;;;1.00;;
7903;SDS011;3997;48.416;8.512;2022-09-12T12:57:36;0.93;;;0.93;;
7903;SDS011;3997;48.416;8.512;2022-09-12T13:00:04;1.10;;;1.10;;
7903;SDS011;3997;48.416;8.512;2022-09-12T13:02:33;5.85;;;1.30;;
7903;SDS011;3997;48.416;8.512;2022-09-12T13:05:03;1.00;;;1.00;;
7903;SDS011;3997;48.416;8.512;2022-09-12T13:07:32;1.40;;;1.00;;
7903;SDS011;3997;48.416;8.512;2022-09-12T13:10:00;0.95;;;0.95;;
7903;SDS011;3997;48.416;8.512;2022-09-12T13:12:28;1.10;;;1.10;;
7903;SDS011;3997;48.416;8.512;2022-09-12T13:14:55;0.73;;;0.73;;
7903;SDS011;3997;48.416;8.512;2022-09-12T13:17:28;0.90;;;0.85;;
7903;SDS011;3997;48.416;8.512;2022-09-12T13:20:05;1.17;;;1.08;;
7903;SDS011;3997;48.416;8.512;2022-09-12T13:22:37;1.58;;;0.95;;
7903;SDS011;3997;48.416;8.512;2022-09-12T13:25:15;1.13;;;1.00;;
7903;SDS011;3997;48.416;8.512;2022-09-12T13:27:55;1.13;;;1.00;;
7903;SDS011;3997;48.416;8.512;2022-09-12T13:30:21;0.93;;;0.93;;
7903;SDS011;3997;48.416;8.512;2022-09-12T13:32:48;1.02;;;1.00;;
7903;SDS011;3997;48.416;8.512;2022-09-12T13:35:17;1.10;;;1.10;;
7903;SDS011;3997;48.416;8.512;2022-09-12T13:37:47;1.02;;;1.02;;
7903;SDS011;3997;48.416;8.512;2022-09-12T13:40:17;1.00;;;1.00;;
7903;SDS011;3997;48.416;8.512;2022-09-12T13:42:49;1.30;;;1.20;;
7903;SDS011;3997;48.416;8.512;2022-09-12T13:45:19;1.08;;;1.05;;
7903;SDS011;3997;48.416;8.512;2022-09-12T13:47:47;1.13;;;1.00;;
7903;SDS011;3997;48.416;8.512;2022-09-12T13:50:17;1.30;;;0.90;;
7903;SDS011;3997;48.416;8.512;2022-09-12T13:52:46;1.00;;;1.00;;
7903;SDS011;3997;48.416;8.512;2022-09-12T13:55:17;1.17;;;1.17;;
7903;SDS011;3997;48.416;8.512;2022-09-12T13:57:54;1.40;;;1.08;;
7903;SDS011;3997;48.416;8.512;2022-09-12T14:00:20;1.30;;;1.10;;
7903;SDS011;3997;48.416;8.512;2022-09-12T14:02:47;0.90;;;0.90;;
7903;SDS011;3997;48.416;8.512;2022-09-12T14:05:18;1.00;;;1.00;;
7903;SDS011;3997;48.416;8.512;2022-09-12T14:07:46;1.10;;;1.10;;
7903;SDS011;3997;48.416;8.512;2022-09-12T14:10:18;0.95;;;0.93;;
7903;SDS011;3997;48.416;8.512;2022-09-12T14:12:46;1.00;;;0.93;;
7903;SDS011;3997;48.416;8.512;2022-09-12T14:15:16;1.00;;;1.00;;
7903;SDS011;3997;48.416;8.512;2022-09-12T14:17:47;1.10;;;1.10;;
7903;SDS011;3997;48.416;8.512;2022-09-12T14:20:18;1.15;;;1.15;;
7903;SDS011;3997;48.416;8.512;2022-09-12T14:22:44;1.00;;;1.00;;
7903;SDS011;3997;48.416;8.512;2022-09-12T14:25:13;1.10;;;1.10;;
7903;SDS011;3997;48.416;8.512;2022-09-12T14:27:40;1.13;;;1.13;;
7903;SDS011;3997;48.416;8.512;2022-09-12T14:30:18;0.98;;;0.98;;
7903;SDS011;3997;48.416;8.512;2022-09-12T14:35:28;4.97;;;1.30;;
7903;SDS011;3997;48.416;8.512;2022-09-12T14:37:56;1.00;;;1.00;;
7903;SDS011;3997;48.416;8.512;2022-09-12T14:40:30;1.33;;;0.98;;
7903;SDS011;3997;48.416;8.512;2022-09-12T14:42:56;1.13;;;1.10;;
7903;SDS011;3997;48.416;8.512;2022-09-12T14:45:24;1.00;;;1.00;;
7903;SDS011;3997;48.416;8.512;2022-09-12T14:47:52;1.20;;;1.20;;
7903;SDS011;3997;48.416;8.512;2022-09-12T14:50:21;2.58;;;1.13;;
7903;SDS011;3997;48.416;8.512;2022-09-12T14:53:02;1.20;;;1.20;;
7903;SDS011;3997;48.416;8.512;2022-09-12T14:55:29;1.20;;;1.10;;
7903;SDS011;3997;48.416;8.512;2022-09-12T14:58:05;1.10;;;1.10;;
7903;SDS011;3997;48.416;8.512;2022-09-12T15:00:32;1.60;;;1.10;;
7903;SDS011;3997;48.416;8.512;2022-09-12T15:03:14;1.15;;;1.15;;
7903;SDS011;3997;48.416;8.512;2022-09-12T15:05:47;1.30;;;1.30;;
7903;SDS011;3997;48.416;8.512;2022-09-12T15:08:15;1.00;;;1.00;;
7903;SDS011;3997;48.416;8.512;2022-09-12T15:10:42;1.10;;;1.10;;
7903;SDS011;3997;48.416;8.512;2022-09-12T15:13:12;1.00;;;1.00;;
7903;SDS011;3997;48.416;8.512;2022-09-12T15:15:40;1.23;;;1.13;;
7903;SDS011;3997;48.416;8.512;2022-09-12T15:18:06;1.20;;;1.20;;
7903;SDS011;3997;48.416;8.512;2022-09-12T15:20:34;1.05;;;1.05;;
7903;SDS011;3997;48.416;8.512;2022-09-12T15:23:01;1.08;;;1.08;;
7903;SDS011;3997;48.416;8.512;2022-09-12T15:25:29;1.20;;;1.20;;
7903;SDS011;3997;48.416;8.512;2022-09-12T15:27:55;1.42;;;1.30;;
7903;SDS011;3997;48.416;8.512;2022-09-12T15:30:21;1.60;;;1.50;;
7903;SDS011;3997;48.416;8.512;2022-09-12T15:32:48;2.20;;;1.90;;
7903;SDS011;3997;48.416;8.512;2022-09-12T15:35:15;1.38;;;1.38;;
7903;SDS011;3997;48.416;8.512;2022-09-12T15:37:42;1.23;;;1.23;;
7903;SDS011;3997;48.416;8.512;2022-09-12T15:40:10;1.23;;;1.23;;
7903;SDS011;3997;48.416;8.512;2022-09-12T15:42:38;1.52;;;1.10;;